Time;durP1;ratioP1;P1;durP2;ratioP2;P2;SDS_P1;SDS_P2;PMS_P1;PMS_P2;Temp;Humidity;BMP_temperature;BMP_pressure;BME280_temperature;BME280_humidity;BME280_pressure;Samples;Min_cycle;Max_cycle;Signal;HPM_P1;HPM_P2
2022/08/23 00:01:50;;;;;;;7.20;2.67;;;;;;;25.42;48.68;101394.00;5070170;27;97200;-70
2022/08/23 00:04:21;;;;;;;6.40;2.42;;;;;;;25.38;48.47;101397.97;5063162;27;98868;-70
2022/08/23 00:06:49;;;;;;;6.13;2.70;;;;;;;25.23;49.11;101394.75;5071128;27;99172;-70
2022/08/23 00:09:16;;;;;;;6.55;2.58;;;;;;;25.19;49.17;101397.88;5064142;27;101607;-70
2022/08/23 00:11:45;;;;;;;4.25;1.85;;;;;;;25.26;48.78;101394.50;5071628;27;97089;-69
2022/08/23 00:14:15;;;;;;;7.25;3.28;;;;;;;25.26;49.05;101394.50;5065120;27;97660;-69
2022/08/23 00:16:45;;;;;;;4.57;2.33;;;;;;;25.17;49.22;101389.00;5068586;27;99030;-70
2022/08/23 00:19:15;;;;;;;8.82;2.50;;;;;;;25.32;48.76;101385.84;5067965;27;99077;-69
2022/08/23 00:21:42;;;;;;;12.20;3.22;;;;;;;24.95;49.70;101393.56;5071959;27;96913;-70
2022/08/23 00:24:13;;;;;;;5.13;2.92;;;;;;;24.89;49.54;101394.09;5066905;27;96897;-70
2022/08/23 00:26:48;;;;;;;4.93;2.50;;;;;;;24.47;50.87;101384.19;5071506;27;99033;-70
2022/08/23 00:29:15;;;;;;;8.60;2.90;;;;;;;24.22;51.74;101388.91;5062819;27;99026;-70
2022/08/23 00:31:43;;;;;;;6.88;2.88;;;;;;;24.40;51.29;101386.53;5064474;27;98018;-70
2022/08/23 00:34:09;;;;;;;5.50;2.60;;;;;;;24.60;50.79;101383.03;5066292;27;99410;-71
2022/08/23 00:36:37;;;;;;;3.83;2.00;;;;;;;24.78;50.06;101385.16;5065582;27;98956;-70
2022/08/23 00:39:03;;;;;;;7.13;3.08;;;;;;;24.79;50.19;101392.28;5066116;27;99347;-70
2022/08/23 00:41:30;;;;;;;5.28;2.47;;;;;;;25.05;49.23;101384.66;5067330;27;97326;-70
2022/08/23 00:49:32;;;;;;;7.35;3.00;;;;;;;24.84;49.31;101376.50;5064375;27;97202;-71
2022/08/23 00:52:07;;;;;;;4.53;2.95;;;;;;;24.99;49.19;101373.41;5070204;27;96827;-71
2022/08/23 00:54:36;;;;;;;9.30;3.15;;;;;;;24.99;48.92;101365.28;5067412;27;96856;-71
2022/08/23 00:57:05;;;;;;;3.53;2.25;;;;;;;24.85;49.20;101372.84;5064738;27;97838;-70
2022/08/23 00:59:34;;;;;;;3.58;2.20;;;;;;;24.80;49.59;101369.66;5060550;27;100219;-70
2022/08/23 01:02:07;;;;;;;5.85;3.00;;;;;;;24.55;49.78;101370.88;5068465;27;96836;-69
2022/08/23 01:04:38;;;;;;;9.10;3.72;;;;;;;24.76;49.62;101377.16;5065176;27;96786;-70
2022/08/23 01:07:15;;;;;;;5.63;3.47;;;;;;;24.88;49.31;101375.25;5069590;27;98915;-69
2022/08/23 01:09:49;;;;;;;6.43;3.67;;;;;;;24.73;49.33;101369.34;5067621;27;99166;-69
2022/08/23 01:12:22;;;;;;;4.65;3.03;;;;;;;24.77;48.87;101376.19;5065641;27;96895;-68
2022/08/23 01:14:56;;;;;;;5.85;2.67;;;;;;;24.88;48.69;101376.13;5063146;27;97544;-70
2022/08/23 01:17:28;;;;;;;6.90;3.00;;;;;;;24.86;48.96;101367.31;5062750;27;99256;-70
2022/08/23 01:19:58;;;;;;;8.25;2.40;;;;;;;24.78;48.40;101369.78;5061813;27;99859;-70
2022/08/23 01:22:33;;;;;;;7.63;2.92;;;;;;;24.85;48.84;101367.44;5067799;27;96786;-70
2022/08/23 01:25:03;;;;;;;6.70;2.78;;;;;;;24.92;48.34;101368.66;5063841;27;98050;-69
2022/08/23 01:27:29;;;;;;;5.90;2.70;;;;;;;24.91;48.32;101367.78;5066179;27;101890;-70
2022/08/23 01:29:56;;;;;;;7.50;3.17;;;;;;;24.99;48.08;101376.09;5064775;27;97717;-69
2022/08/23 01:32:24;;;;;;;3.75;2.47;;;;;;;25.12;47.99;101375.91;5068749;27;96823;-69
2022/08/23 01:34:51;;;;;;;6.53;2.70;;;;;;;25.04;47.44;101372.13;5063471;27;96999;-69
2022/08/23 01:37:21;;;;;;;8.73;2.58;;;;;;;25.10;47.35;101371.59;5067185;27;99182;-70
2022/08/23 01:39:50;;;;;;;4.50;2.47;;;;;;;25.01;47.91;101374.09;5064135;27;99441;-69
2022/08/23 01:42:18;;;;;;;4.82;2.78;;;;;;;25.10;47.56;101377.00;5069788;27;98577;-69
2022/08/23 01:44:47;;;;;;;8.23;2.85;;;;;;;25.01;47.76;101373.25;5070667;27;98828;-69
2022/08/23 01:47:13;;;;;;;5.45;2.42;;;;;;;24.83;47.87;101372.09;5067398;27;98972;-69
2022/08/23 01:49:40;;;;;;;4.30;2.40;;;;;;;24.67;48.12;101369.84;5066138;27;98996;-69
2022/08/23 01:52:09;;;;;;;8.32;2.85;;;;;;;24.82;47.89;101373.06;5070736;27;96889;-69
2022/08/23 01:54:36;;;;;;;4.78;2.45;;;;;;;24.84;47.89;101369.28;5065326;27;97663;-70
2022/08/23 01:57:05;;;;;;;5.85;2.53;;;;;;;24.94;47.74;101366.69;5065360;27;97701;-70
2022/08/23 01:59:36;;;;;;;7.75;2.80;;;;;;;24.95;47.73;101363.81;5063072;27;99696;-69
2022/08/23 02:02:03;;;;;;;4.75;2.17;;;;;;;24.95;47.34;101373.78;5064304;27;97911;-70
2022/08/23 02:04:32;;;;;;;6.15;2.53;;;;;;;25.03;46.49;101371.28;5066954;27;99036;-69
2022/08/23 02:06:59;;;;;;;3.90;1.85;;;;;;;24.71;47.08;101375.84;5065634;27;100864;-69
2022/08/23 02:09:30;;;;;;;5.13;2.25;;;;;;;24.81;47.23;101376.78;5064986;27;98881;-69
2022/08/23 02:11:59;;;;;;;5.70;2.10;;;;;;;24.82;46.84;101365.81;5067536;27;96935;-69
2022/08/23 02:14:26;;;;;;;5.18;1.80;;;;;;;24.85;46.70;101362.03;5070508;27;97549;-71
2022/08/23 02:16:56;;;;;;;4.85;2.03;;;;;;;24.88;46.51;101359.91;5064772;27;100282;-70
2022/08/23 02:19:23;;;;;;;5.25;2.53;;;;;;;24.92;46.59;101365.94;5063548;27;99279;-70
2022/08/23 02:21:51;;;;;;;3.72;2.08;;;;;;;24.67;47.04;101366.28;5070580;27;98896;-69
2022/08/23 02:24:21;;;;;;;6.68;1.90;;;;;;;24.97;46.28;101361.84;5072748;27;97008;-70
2022/08/23 02:26:51;;;;;;;4.72;1.95;;;;;;;24.87;46.20;101371.72;5065829;27;98983;-69
2022/08/23 02:29:22;;;;;;;5.10;2.00;;;;;;;24.83;46.26;101362.16;5073758;27;98082;-70
2022/08/23 02:31:48;;;;;;;5.55;2.05;;;;;;;24.89;46.31;101358.94;5064366;27;98548;-71
2022/08/23 02:34:18;;;;;;;5.32;1.75;;;;;;;24.85;46.25;101351.22;5073283;27;97045;-71
2022/08/23 02:36:45;;;;;;;6.80;2.20;;;;;;;24.85;46.66;101348.50;5065385;27;98885;-70
2022/08/23 02:39:13;;;;;;;5.95;1.92;;;;;;;24.72;46.74;101343.28;5067255;27;99482;-71
2022/08/23 02:41:40;;;;;;;4.72;2.28;;;;;;;24.82;46.42;101346.06;5067844;27;97537;-69
2022/08/23 02:44:06;;;;;;;6.88;1.88;;;;;;;24.78;46.79;101350.88;5068029;27;97342;-69
2022/08/23 02:46:33;;;;;;;4.47;2.03;;;;;;;24.81;46.82;101361.41;5064780;27;99384;-70
2022/08/23 02:49:01;;;;;;;5.90;2.20;;;;;;;24.81;46.88;101363.28;5070453;27;99512;-69
2022/08/23 02:51:29;;;;;;;6.65;2.15;;;;;;;24.93;46.41;101363.13;5069443;27;96813;-69
2022/08/23 02:53:56;;;;;;;5.72;2.22;;;;;;;24.89;46.72;101361.66;5062136;27;98767;-70
2022/08/23 02:56:22;;;;;;;8.02;2.50;;;;;;;24.81;47.05;101356.00;5064693;27;99362;-70
2022/08/23 02:58:49;;;;;;;6.07;2.42;;;;;;;24.92;46.77;101361.41;5072163;27;98806;-70
2022/08/23 03:01:16;;;;;;;4.13;2.20;;;;;;;24.72;47.10;101364.91;5067614;27;97180;-69
2022/08/23 03:03:45;;;;;;;4.45;2.25;;;;;;;24.68;47.53;101370.72;5065232;27;96864;-69
2022/08/23 03:06:11;;;;;;;5.38;2.60;;;;;;;24.67;47.45;101372.56;5062428;27;99060;-70
2022/08/23 03:08:41;;;;;;;4.80;2.70;;;;;;;24.62;47.78;101381.03;5072644;27;98851;-69
2022/08/23 03:11:12;;;;;;;5.75;2.42;;;;;;;24.72;47.45;101378.44;5065167;27;97767;-68
2022/08/23 03:13:39;;;;;;;6.65;1.92;;;;;;;24.61;47.90;101376.59;5072116;27;96959;-69
2022/08/23 03:16:07;;;;;;;5.53;2.70;;;;;;;24.50;48.15;101383.91;5065810;27;99317;-69
2022/08/23 03:18:33;;;;;;;7.72;2.88;;;;;;;24.66;47.74;101391.59;5074518;27;99178;-69
2022/08/23 03:21:00;;;;;;;7.25;2.72;;;;;;;24.69;48.21;101388.63;5065134;27;96895;-68
2022/08/23 03:23:30;;;;;;;6.20;2.90;;;;;;;24.41;48.79;101393.66;5066416;27;96795;-69
2022/08/23 03:26:00;;;;;;;6.90;2.33;;;;;;;24.45;48.96;101387.00;5064284;27;98957;-70
2022/08/23 03:28:27;;;;;;;5.80;2.67;;;;;;;24.33;48.87;101390.75;5072325;27;98893;-70
2022/08/23 03:30:54;;;;;;;9.00;2.95;;;;;;;24.50;48.63;101392.00;5068775;27;96727;-69
2022/08/23 03:33:20;;;;;;;5.05;2.50;;;;;;;24.64;48.76;101394.41;5062036;27;97331;-69
2022/08/23 03:35:47;;;;;;;9.25;2.80;;;;;;;24.56;48.43;101400.47;5069134;27;98989;-70
2022/08/23 03:38:15;;;;;;;10.00;2.80;;;;;;;24.67;48.39;101394.19;5063931;27;99448;-71
2022/08/23 03:40:42;;;;;;;7.78;2.97;;;;;;;24.77;48.15;101400.50;5069405;27;97048;-70
2022/08/23 03:43:10;;;;;;;8.65;3.35;;;;;;;24.67;48.52;101396.03;5070603;27;96898;-70
2022/08/23 03:45:39;;;;;;;6.95;2.60;;;;;;;24.76;48.47;101396.09;5066111;27;97884;-70
2022/08/23 03:48:05;;;;;;;5.93;3.08;;;;;;;24.61;48.83;101398.22;5063614;27;98711;-70
2022/08/23 03:50:32;;;;;;;6.80;3.30;;;;;;;24.79;48.38;101403.94;5072724;27;97105;-70
2022/08/23 03:52:58;;;;;;;8.30;2.97;;;;;;;24.58;48.98;101408.44;5065876;27;98795;-72
2022/08/23 03:55:25;;;;;;;6.07;3.15;;;;;;;24.61;48.59;101406.34;5069467;27;99322;-70
2022/08/23 03:57:51;;;;;;;7.20;3.22;;;;;;;24.69;48.64;101408.41;5069788;27;99212;-70
2022/08/23 04:00:20;;;;;;;8.98;4.20;;;;;;;24.65;48.91;101409.66;5067163;27;98468;-70
2022/08/23 04:02:47;;;;;;;8.48;3.28;;;;;;;24.66;49.17;101399.72;5065563;27;97524;-69
2022/08/23 04:05:14;;;;;;;10.05;3.15;;;;;;;24.72;48.79;101408.16;5062868;27;98584;-70
2022/08/23 04:07:40;;;;;;;8.23;3.20;;;;;;;24.63;48.90;101407.06;5070028;27;99785;-70
2022/08/23 04:10:14;;;;;;;8.98;3.33;;;;;;;24.75;48.60;101401.59;5069147;27;97147;-70
2022/08/23 04:12:40;;;;;;;11.85;3.28;;;;;;;24.63;48.85;101411.63;5072112;27;96822;-70
2022/08/23 04:15:08;;;;;;;7.53;3.30;;;;;;;24.61;48.95;101400.09;5071222;27;98001;-70
2022/08/23 04:17:36;;;;;;;8.73;3.47;;;;;;;24.57;49.34;101401.31;5066324;27;98712;-69
2022/08/23 04:20:03;;;;;;;5.75;3.08;;;;;;;24.72;48.72;101405.44;5069579;27;96812;-69
2022/08/23 04:22:30;;;;;;;12.32;4.10;;;;;;;24.66;49.02;101405.97;5061310;27;98308;-70
2022/08/23 04:24:56;;;;;;;7.80;3.60;;;;;;;24.69;49.06;101397.59;5064054;27;100381;-69
2022/08/23 04:27:22;;;;;;;11.07;3.45;;;;;;;24.69;49.02;101403.00;5071690;27;99094;-69
2022/08/23 04:29:49;;;;;;;8.32;3.40;;;;;;;24.60;49.33;101404.66;5073249;27;96839;-69
2022/08/23 04:32:18;;;;;;;6.35;3.40;;;;;;;24.53;49.53;101398.03;5069180;27;97559;-69
2022/08/23 04:34:48;;;;;;;6.28;3.30;;;;;;;24.42;49.53;101408.00;5069785;27;99026;-70
2022/08/23 04:37:14;;;;;;;10.32;4.43;;;;;;;24.51;49.94;101397.31;5067470;27;98697;-70
2022/08/23 04:42:22;;;;;;;7.63;2.97;;;;;;;24.57;49.36;101412.13;5066208;27;97810;-70
2022/08/23 04:44:48;;;;;;;5.68;3.00;;;;;;;24.49;49.59;101417.31;5067882;27;100411;-70
2022/08/23 04:47:15;;;;;;;7.63;3.33;;;;;;;24.62;49.56;101410.75;5071138;27;101490;-69
2022/08/23 04:49:41;;;;;;;8.88;3.22;;;;;;;24.73;49.17;101417.97;5061316;27;97421;-70
2022/08/23 04:52:10;;;;;;;9.70;3.75;;;;;;;24.81;49.02;101418.16;5065357;27;96935;-70
2022/08/23 04:54:36;;;;;;;5.90;3.00;;;;;;;24.57;49.53;101422.94;5066178;27;99358;-69
2022/08/23 04:57:03;;;;;;;8.45;3.72;;;;;;;24.56;49.78;101422.09;5067814;27;98962;-70
2022/08/23 04:59:29;;;;;;;7.10;3.28;;;;;;;24.65;49.33;101420.47;5067260;27;96913;-70
2022/08/23 05:01:56;;;;;;;8.40;3.70;;;;;;;24.63;49.88;101427.84;5069756;27;96858;-70
2022/08/23 05:04:25;;;;;;;6.78;3.40;;;;;;;24.41;50.10;101427.91;5064586;27;99080;-70
2022/08/23 05:06:54;;;;;;;9.43;3.50;;;;;;;24.65;49.75;101420.47;5068105;27;98439;-70
2022/08/23 05:09:24;;;;;;;12.45;3.50;;;;;;;24.63;49.77;101434.09;5065392;27;96765;-70
2022/08/23 05:11:50;;;;;;;11.13;4.45;;;;;;;24.76;49.40;101435.75;5068161;27;96929;-71
2022/08/23 05:14:19;;;;;;;6.22;3.22;;;;;;;24.83;49.54;101436.97;5063196;27;101618;-70
2022/08/23 05:16:47;;;;;;;10.80;3.67;;;;;;;24.70;49.50;101437.13;5066078;27;100513;-70
2022/08/23 05:19:16;;;;;;;10.88;3.42;;;;;;;24.93;49.11;101433.41;5070229;27;96854;-70
2022/08/23 05:21:42;;;;;;;8.30;3.42;;;;;;;24.75;49.72;101442.16;5070470;27;97533;-70
2022/08/23 05:24:08;;;;;;;10.23;3.53;;;;;;;24.79;49.65;101447.19;5068043;27;99586;-70
2022/08/23 05:26:36;;;;;;;8.40;3.65;;;;;;;24.59;50.33;101445.28;5066586;27;98942;-69
2022/08/23 05:29:03;;;;;;;5.88;3.15;;;;;;;24.60;50.23;101439.78;5064534;27;96888;-70
2022/08/23 05:31:30;;;;;;;9.82;3.80;;;;;;;24.59;50.49;101448.00;5068781;27;97061;-69
2022/08/23 05:33:57;;;;;;;8.00;3.28;;;;;;;24.76;49.93;101450.13;5068199;27;98926;-70
2022/08/23 05:36:23;;;;;;;8.18;3.47;;;;;;;24.78;49.95;101440.06;5068305;27;99259;-71
2022/08/23 05:38:52;;;;;;;10.23;3.53;;;;;;;24.77;50.06;101443.75;5067437;27;98260;-70
2022/08/23 05:41:19;;;;;;;11.02;3.90;;;;;;;24.65;50.76;101446.63;5067381;27;98660;-69
2022/08/23 05:43:50;;;;;;;10.48;3.95;;;;;;;24.87;49.90;101452.81;5063303;27;98824;-71
2022/08/23 05:46:19;;;;;;;8.90;3.67;;;;;;;25.05;49.72;101455.81;5062745;27;98061;-70
2022/08/23 05:48:47;;;;;;;4.95;3.08;;;;;;;25.04;49.63;101448.69;5059993;27;97380;-70
2022/08/23 05:51:17;;;;;;;9.55;4.10;;;;;;;25.11;49.75;101444.50;5067697;27;96977;-69
2022/08/23 05:53:45;;;;;;;5.95;3.47;;;;;;;25.45;48.98;101442.44;5067443;27;99485;-70
2022/08/23 05:56:15;;;;;;;8.52;3.80;;;;;;;25.31;48.73;101449.03;5061389;27;98570;-70
2022/08/23 05:58:42;;;;;;;9.27;4.15;;;;;;;25.18;49.40;101452.94;5063740;27;98008;-70
2022/08/23 06:01:12;;;;;;;9.13;3.75;;;;;;;25.36;49.05;101460.31;5060884;27;97483;-71
2022/08/23 06:03:39;;;;;;;9.73;3.53;;;;;;;25.54;48.29;101449.75;5069985;27;99538;-71
2022/08/23 06:06:06;;;;;;;6.07;3.65;;;;;;;25.88;47.74;101450.38;5065681;27;99314;-71
2022/08/23 06:08:43;;;;;;;7.88;3.35;;;;;;;25.85;47.46;101455.22;5066947;27;97153;-71
2022/08/23 06:11:15;;;;;;;8.27;3.47;;;;;;;25.67;47.79;101457.66;5062280;27;97220;-71
2022/08/23 06:13:45;;;;;;;9.80;3.40;;;;;;;25.66;47.80;101464.97;5068271;27;99896;-70
2022/08/23 06:16:15;;;;;;;9.15;3.65;;;;;;;25.72;48.20;101467.13;5062994;27;102021;-70
2022/08/23 06:18:41;;;;;;;7.40;3.22;;;;;;;25.63;48.16;101470.63;5068515;27;96867;-71
2022/08/23 06:21:10;;;;;;;6.10;3.28;;;;;;;25.73;47.85;101474.22;5062987;27;98913;-70
2022/08/23 06:23:37;;;;;;;13.65;3.65;;;;;;;25.93;47.68;101468.94;5069402;27;99140;-69
2022/08/23 06:26:11;;;;;;;9.70;3.70;;;;;;;25.88;47.62;101473.88;5063342;27;102775;-70
2022/08/23 06:28:38;;;;;;;9.82;3.58;;;;;;;26.10;47.39;101466.44;5071499;27;96785;-70
2022/08/23 06:31:04;;;;;;;14.05;4.32;;;;;;;26.09;47.13;101466.56;5061605;27;96991;-70
2022/08/23 06:33:33;;;;;;;5.40;3.70;;;;;;;26.06;47.46;101466.81;5057325;27;99118;-70
2022/08/23 06:36:05;;;;;;;14.48;3.97;;;;;;;25.80;48.14;101461.00;5060581;27;99156;-72
2022/08/23 06:38:49;;;;;;;;;;;;;;;;;;;;;
2022/08/23 06:41:16;;;;;;;13.52;5.65;;;;;;;25.94;47.51;101466.06;5056232;27;118689;-72
2022/08/23 06:43:47;;;;;;;10.10;3.50;;;;;;;26.09;47.54;101469.28;5062728;27;99119;-70
2022/08/23 06:46:15;;;;;;;10.52;3.42;;;;;;;26.09;47.43;101471.97;5058274;27;99188;-71
2022/08/23 06:48:44;;;;;;;12.68;3.83;;;;;;;26.29;47.22;101472.94;5068989;27;96888;-71
2022/08/23 06:51:12;;;;;;;8.57;3.88;;;;;;;26.27;46.91;101469.50;5068136;27;96882;-71
2022/08/23 06:53:38;;;;;;;7.20;3.28;;;;;;;26.06;47.44;101474.94;5058328;27;97607;-71
2022/08/23 06:56:06;;;;;;;20.98;3.55;;;;;;;26.36;47.33;101476.81;5065364;27;99479;-70
2022/08/23 06:58:33;;;;;;;11.43;3.28;;;;;;;26.39;47.15;101482.78;5069581;27;96922;-71
2022/08/23 07:01:11;;;;;;;11.82;4.20;;;;;;;26.32;47.01;101486.22;5062466;27;96913;-71
2022/08/23 07:03:38;;;;;;;7.55;3.03;;;;;;;26.41;47.17;101485.38;5056099;27;98974;-72
2022/08/23 07:06:06;;;;;;;9.27;3.15;;;;;;;26.59;46.64;101483.69;5066571;27;98149;-71
2022/08/23 07:08:33;;;;;;;11.43;3.10;;;;;;;26.58;46.70;101479.28;5071636;27;98704;-71
2022/08/23 07:10:59;;;;;;;16.35;3.20;;;;;;;26.51;46.84;101481.72;5066471;27;96966;-71
2022/08/23 07:13:27;;;;;;;10.38;4.05;;;;;;;26.61;46.69;101486.25;5062453;27;99225;-71
2022/08/23 07:15:59;;;;;;;8.65;3.30;;;;;;;26.62;46.64;101485.28;5057118;27;99041;-70
2022/08/23 07:18:26;;;;;;;8.02;3.40;;;;;;;26.60;47.00;101482.69;5065569;27;97113;-71
2022/08/23 07:20:56;;;;;;;12.32;3.45;;;;;;;26.88;46.50;101486.44;5067273;27;97730;-71
2022/08/23 07:23:24;;;;;;;5.63;2.63;;;;;;;27.08;45.90;101479.19;5072296;27;99560;-71
2022/08/23 07:25:53;;;;;;;10.13;3.17;;;;;;;27.15;45.98;101480.34;5068384;27;99936;-70
2022/08/23 07:28:21;;;;;;;10.73;2.70;;;;;;;27.15;45.87;101481.19;5070900;27;96848;-70
2022/08/23 07:30:48;;;;;;;9.05;3.05;;;;;;;27.30;46.02;101479.78;5070560;27;96925;-70
2022/08/23 07:33:14;;;;;;;8.40;3.05;;;;;;;27.31;45.95;101476.03;5064431;27;103264;-70
2022/08/23 07:35:46;;;;;;;12.43;2.85;;;;;;;27.48;45.28;101487.16;5062798;27;98737;-71
2022/08/23 07:38:14;;;;;;;10.82;3.55;;;;;;;27.51;45.44;101476.00;5069275;27;97469;-72
2022/08/23 07:40:41;;;;;;;7.35;2.85;;;;;;;27.56;45.25;101480.03;5074158;27;96938;-70
2022/08/23 07:43:09;;;;;;;10.65;5.53;;;;;;;27.44;45.55;101481.16;5063031;27;98336;-71
2022/08/23 07:45:36;;;;;;;11.30;3.20;;;;;;;27.61;45.06;101487.75;5068613;27;98862;-70
2022/08/23 07:48:05;;;;;;;7.07;2.55;;;;;;;27.60;45.13;101491.44;5063772;27;96903;-70
2022/08/23 07:50:32;;;;;;;6.60;2.50;;;;;;;27.64;45.27;101482.84;5075642;27;96909;-70
2022/08/23 07:52:59;;;;;;;7.50;2.63;;;;;;;27.72;45.16;101484.84;5064399;27;97716;-70
2022/08/23 07:55:26;;;;;;;8.80;2.60;;;;;;;27.71;45.36;101480.41;5068275;27;101555;-70
2022/08/23 07:57:53;;;;;;;6.70;2.47;;;;;;;27.81;44.95;101483.97;5068979;27;97675;-71
2022/08/23 08:00:20;;;;;;;10.95;2.63;;;;;;;28.22;44.01;101482.69;5068665;27;97884;-70
2022/08/23 08:02:47;;;;;;;8.05;2.70;;;;;;;28.34;43.65;101491.50;5056078;27;99468;-71
2022/08/23 08:05:13;;;;;;;8.18;3.15;;;;;;;28.37;43.07;101486.59;5065454;27;98570;-70
2022/08/23 08:07:39;;;;;;;9.32;2.80;;;;;;;28.11;43.56;101494.56;5069431;27;97509;-71
2022/08/23 08:10:07;;;;;;;7.25;2.38;;;;;;;28.43;43.00;101491.41;5069956;27;97210;-70
2022/08/23 08:12:33;;;;;;;8.88;2.53;;;;;;;28.37;43.02;101497.47;5070228;27;99413;-71
2022/08/23 08:15:02;;;;;;;14.80;2.38;;;;;;;28.43;43.04;101498.72;5069878;27;102326;-70
2022/08/23 08:17:28;;;;;;;6.03;2.67;;;;;;;28.35;43.28;101496.78;5064005;27;97346;-70
2022/08/23 08:19:54;;;;;;;7.50;2.67;;;;;;;28.25;43.63;101503.25;5068516;27;96958;-71
2022/08/23 08:22:21;;;;;;;7.15;4.35;;;;;;;28.33;43.35;101506.06;5065444;27;99538;-71
2022/08/23 08:24:47;;;;;;;4.60;2.30;;;;;;;28.30;43.54;101500.94;5067327;27;97748;-71
2022/08/23 08:27:14;;;;;;;9.43;2.22;;;;;;;28.29;43.03;101499.25;5069096;27;96855;-71
2022/08/23 08:29:42;;;;;;;7.03;2.30;;;;;;;28.57;42.90;101500.91;5062156;27;97433;-71
2022/08/23 08:32:09;;;;;;;7.93;2.30;;;;;;;28.57;42.14;101503.63;5057514;27;101739;-71
2022/08/23 08:34:37;;;;;;;7.30;1.95;;;;;;;28.72;42.21;101501.25;5064040;27;98726;-71
2022/08/23 08:37:04;;;;;;;8.65;2.15;;;;;;;28.55;41.98;101497.53;5065716;27;96881;-71
2022/08/23 08:39:32;;;;;;;4.45;1.90;;;;;;;28.47;42.04;101495.56;5066135;27;96956;-71
2022/08/23 08:42:19;;;;;;;6.95;2.47;;;;;;;29.02;41.51;101502.78;5069082;27;98853;-71
2022/08/23 08:44:50;;;;;;;12.48;3.25;;;;;;;28.90;41.29;101499.44;5066819;27;100591;-71
2022/08/23 08:47:25;;;;;;;8.18;2.47;;;;;;;28.85;40.90;101501.78;5065937;27;97857;-71
2022/08/23 08:50:00;;;;;;;5.47;2.20;;;;;;;28.85;40.75;101499.06;5062406;27;97697;-72
2022/08/23 08:52:28;;;;;;;4.07;1.95;;;;;;;28.90;40.76;101504.88;5059976;27;99309;-71
2022/08/23 08:55:00;;;;;;;6.60;3.05;;;;;;;29.12;40.37;101506.28;5061288;27;99544;-71
2022/08/23 08:57:27;;;;;;;6.85;2.33;;;;;;;29.26;40.23;101503.88;5064196;27;97176;-71
2022/08/23 08:59:59;;;;;;;4.35;2.05;;;;;;;29.28;39.36;101504.53;5067701;27;97113;-71
2022/08/23 09:02:32;;;;;;;5.68;1.90;;;;;;;28.96;40.07;101503.41;5070289;27;99263;-71
2022/08/23 09:05:03;;;;;;;8.25;2.17;;;;;;;28.92;40.60;101501.00;5060621;27;98805;-70
2022/08/23 09:07:44;;;;;;;7.18;2.58;;;;;;;28.89;40.65;101508.59;5065751;27;96819;-70
2022/08/23 09:10:29;;;;;;;7.68;2.20;;;;;;;28.74;41.26;101504.69;5061811;27;97154;-71
2022/08/23 09:13:07;;;;;;;6.68;2.15;;;;;;;28.67;41.47;101506.31;5064987;27;99139;-71
2022/08/23 09:15:40;;;;;;;4.68;2.10;;;;;;;28.78;41.40;101509.69;5065710;27;98856;-71
2022/08/23 09:18:12;;;;;;;12.15;2.28;;;;;;;28.72;40.94;101503.97;5067604;27;97201;-70
2022/08/23 09:20:40;;;;;;;9.18;2.10;;;;;;;28.39;41.73;101500.91;5067039;27;97821;-71
2022/08/23 09:23:12;;;;;;;8.65;2.40;;;;;;;28.72;41.16;101499.41;5067198;27;98925;-70
2022/08/23 09:25:38;;;;;;;9.40;2.42;;;;;;;28.82;40.52;101505.63;5066533;27;98815;-70
2022/08/23 09:28:05;;;;;;;7.43;1.73;;;;;;;28.59;41.10;101501.63;5066497;27;96877;-71
2022/08/23 09:30:51;;;;;;;13.70;6.35;;;;;;;28.64;41.23;101506.59;5064794;27;97415;-71
2022/08/23 09:33:21;;;;;;;4.68;1.85;;;;;;;28.43;41.02;101494.13;5068370;27;98617;-71
2022/08/23 09:36:05;;;;;;;3.20;1.67;;;;;;;28.31;41.34;101499.94;5065474;27;98381;-71
2022/08/23 09:38:32;;;;;;;8.70;2.30;;;;;;;28.36;40.97;101495.75;5061084;27;96992;-71
2022/08/23 09:40:59;;;;;;;7.53;1.80;;;;;;;28.28;40.69;101498.38;5067725;27;96771;-71
2022/08/23 09:43:30;;;;;;;8.25;1.88;;;;;;;28.45;40.34;101503.00;5067901;27;99685;-71
2022/08/23 09:46:01;;;;;;;13.73;2.50;;;;;;;28.72;40.26;101501.25;5064231;27;98799;-72
2022/08/23 09:48:38;;;;;;;5.57;2.10;;;;;;;28.79;39.67;101492.38;5062960;27;96845;-71
2022/08/23 09:51:17;;;;;;;6.95;2.20;;;;;;;28.90;39.09;101500.28;5066512;27;97026;-71
2022/08/23 09:53:48;;;;;;;8.00;2.40;;;;;;;28.95;39.17;101505.25;5067624;27;99044;-69
2022/08/23 09:56:19;;;;;;;8.90;2.42;;;;;;;28.97;39.34;101497.81;5065638;27;100518;-69
2022/08/23 09:58:49;;;;;;;6.22;1.83;;;;;;;29.05;38.92;101502.47;5063827;27;98619;-69
2022/08/23 10:01:23;;;;;;;7.18;2.00;;;;;;;29.19;38.17;101493.75;5065341;27;97632;-70
2022/08/23 10:04:09;;;;;;;8.68;2.20;;;;;;;29.25;38.33;101499.44;5067738;27;99071;-69
2022/08/23 10:06:36;;;;;;;7.75;2.10;;;;;;;29.24;38.23;101500.44;5064326;27;99367;-69
2022/08/23 10:09:05;;;;;;;9.10;2.03;;;;;;;29.41;38.75;101504.16;5068063;27;97047;-69
2022/08/23 10:11:37;;;;;;;6.38;2.15;;;;;;;29.65;38.26;101496.19;5067656;27;97655;-69
2022/08/23 10:14:03;;;;;;;9.60;2.00;;;;;;;29.66;37.90;101497.91;5065257;27;97908;-68
2022/08/23 10:16:39;;;;;;;6.28;2.05;;;;;;;29.35;37.88;101502.06;5062556;27;99708;-70
2022/08/23 10:19:17;;;;;;;6.05;2.65;;;;;;;29.58;37.37;101489.69;5067730;27;96864;-70
2022/08/23 10:21:51;;;;;;;7.18;3.00;;;;;;;29.86;37.15;101497.69;5057739;27;97280;-69
2022/08/23 10:24:30;;;;;;;6.20;2.50;;;;;;;29.76;37.16;101502.38;5063747;27;98415;-69
2022/08/23 10:29:35;;;;;;;6.95;2.05;;;;;;;29.82;37.67;101499.00;5058990;27;98888;-70
2022/08/23 10:30:04;;;;;;;7.75;2.40;;;;;;;30.06;37.16;101494.56;5055616;27;97807;-69
2022/08/23 10:32:46;;;;;;;8.02;2.53;;;;;;;30.41;36.23;101493.53;5064960;27;97655;-69
2022/08/23 10:35:30;;;;;;;6.45;2.13;;;;;;;30.37;35.02;101489.44;5062480;27;98947;-69
2022/08/23 10:38:32;;;;;;;8.27;2.42;;;;;;;30.53;35.67;101488.66;5066857;27;98738;-70
2022/08/23 10:41:07;;;;;;;8.00;2.55;;;;;;;30.84;34.48;101495.22;5061656;27;97016;-70
2022/08/23 10:43:43;;;;;;;5.37;2.40;;;;;;;30.99;34.04;101498.13;5072441;27;97410;-69
2022/08/23 10:46:10;;;;;;;5.30;2.47;;;;;;;30.66;34.28;101493.63;5068939;27;99227;-70
2022/08/23 10:48:41;;;;;;;5.13;2.25;;;;;;;30.65;34.10;101492.81;5067711;27;99163;-70
2022/08/23 10:51:19;;;;;;;6.35;2.80;;;;;;;30.79;34.40;101489.41;5068788;27;97152;-70
2022/08/23 10:53:55;;;;;;;7.72;2.35;;;;;;;30.99;34.20;101489.94;5065977;27;98794;-70
2022/08/23 10:56:22;;;;;;;7.78;2.38;;;;;;;31.17;33.52;101489.84;5064971;27;99055;-70
2022/08/23 10:58:52;;;;;;;3.28;1.90;;;;;;;31.25;33.60;101487.06;5070633;27;99281;-70
2022/08/23 11:01:23;;;;;;;4.72;1.88;;;;;;;31.20;33.28;101489.47;5068486;27;96868;-70
2022/08/23 11:03:59;;;;;;;7.25;2.00;;;;;;;31.37;32.32;101490.34;5073310;27;99040;-70
2022/08/23 11:06:45;;;;;;;5.43;1.70;;;;;;;31.50;32.53;101494.25;5065482;27;99680;-70
2022/08/23 11:09:44;;;;;;;6.43;2.08;;;;;;;31.70;32.18;101493.91;5066388;27;98843;-70
2022/08/23 11:12:20;;;;;;;4.10;1.30;;;;;;;31.69;31.64;101490.34;5055262;27;97044;-70
2022/08/23 11:14:48;;;;;;;;;;;;;;;31.47;32.25;101491.00;5069995;27;96899;-70
2022/08/23 11:17:26;;;;;;;5.80;2.00;;;;;;;31.49;32.75;101488.97;5066982;27;98933;-70
2022/08/23 11:19:57;;;;;;;4.57;1.60;;;;;;;31.39;32.34;101489.13;5064887;27;102214;-71
2022/08/23 11:22:27;;;;;;;6.80;1.70;;;;;;;31.12;32.63;101479.41;5064842;27;97020;-73
2022/08/23 11:24:57;;;;;;;4.97;1.90;;;;;;;31.11;33.14;101487.78;5071126;27;97108;-71
2022/08/23 11:27:36;;;;;;;2.38;1.48;;;;;;;31.07;33.08;101481.78;5069751;27;98851;-71
2022/08/23 11:30:36;;;;;;;4.43;1.80;;;;;;;31.12;33.31;101484.00;5068770;27;98834;-71
2022/08/23 11:33:14;;;;;;;8.63;1.65;;;;;;;30.81;32.36;101481.91;5061046;27;97282;-71
2022/08/23 11:35:46;;;;;;;7.10;1.55;;;;;;;30.97;33.06;101489.28;5070913;27;97038;-71
2022/08/23 11:38:16;;;;;;;3.92;1.73;;;;;;;31.02;32.84;101486.03;5071545;27;99251;-71
2022/08/23 11:40:59;;;;;;;5.35;2.47;;;;;;;31.16;33.36;101488.13;5064900;27;99187;-72
2022/08/23 11:43:33;;;;;;;4.38;2.00;;;;;;;31.10;33.11;101486.94;5064914;27;97605;-70
2022/08/23 11:46:33;;;;;;;4.90;1.60;;;;;;;30.70;33.78;101497.75;5069131;27;97901;-71